Terminal Aerodrome Forecast
Issued by NWS Spokane, WA

Home | Current Version | Previous Version | Text Only | Print | Product List | Glossary On
Versions: 1 2 3 4 5 6 7 8 9 10 11 12 13 14 15 16 17 18
000
FTUS46 KOTX 091132
TAFEAT
TAF
KEAT 091132Z 0912/1012 VRB03KT P6SM -SN OVC045
     FM091400 30004KT P6SM VCSH SCT009 OVC015
     FM092300 29003KT 2SM -SN BKN007 OVC025
     FM100300 28003KT 4SM BR OVC012=

USA.gov is the U.S. government's official web portal to all federal, state and local government web resources and services.